• Join FlightAware (Why Join?)
  • Login
  • US Flag 
11:04AM EDT


 

Airport Tracker/Info


-or-


 

Live Flight TrackerFlight Track Log ✈ EJA929 ✈ 08-Dec-2013 ✈ KPNE - KICT

Flight Track Log - Related Links

Times and Time Zones

All times are in EST time to prevent confusion due to time zone crossing. See the EJA929 flight status page for this flight to view local times or setup timezone preferences in your user account.

Time Position Orientation Groundspeed Altitude Reporting Facility
EST Latitude Longitude Course Direction KTS MPH feet Rate Location/Type
09:34PM 40.1000 -75.0000 49° Northeast 146 168 1,000  Level Philadelphia TRACON
09:34PM 40.1333 -74.9500 49° Northeast 193 222 2,100 1,620 Climbing Philadelphia TRACON
09:35PM 40.1833 -74.9833 333° Northwest 293 337 4,100 2,280 Climbing Philadelphia TRACON
09:37PM 40.1833 -75.0833 270° West 233 268 7,000 1,920 Climbing Philadelphia TRACON
09:38PM 40.1500 -75.1667 242° Southwest 247 284 8,200 1,620 Climbing Philadelphia TRACON
09:38PM 40.1333 -75.2333 252° West 246 283 10,000 540 Climbing Philadelphia TRACON
09:41PM 40.0183 -75.4600 237° Southwest 342 394 10,000 120 Level New York Center
09:42PM 39.9719 -75.5761 242° Southwest 336 387 10,600 1,140 Climbing New York Center
09:43PM 39.9614 -75.6783 262° West 318 366 12,300 1,680 Climbing New York Center
09:44PM 39.9481 -75.7992 262° West 313 360 14,000 1,380 Climbing New York Center
09:45PM 39.9394 -75.9014 264° West 313 360 15,100 1,380 Climbing New York Center
09:46PM 39.9261 -76.0117 261° West 313 360 16,800 1,620 Climbing New York Center
09:47PM 39.9122 -76.1378 262° West 313 360 18,400 1,380 Climbing New York Center
09:48PM 39.9092 -76.2483 268° West 321 369 19,600 1,200 Climbing New York Center
09:49PM 39.9142 -76.3653 273° West 327 376 20,900 1,320 Climbing New York Center
09:50PM 39.9186 -76.4875 273° West 333 383 22,300 1,380 Climbing New York Center
09:51PM 39.9250 -76.6153 274° West 344 396 23,700 1,500 Climbing New York Center
09:52PM 39.9292 -76.7400 273° West 350 403 25,300 1,620 Climbing New York Center
09:53PM 39.9350 -76.8706 273° West 355 409 27,000 1,440 Climbing New York Center
09:54PM 39.9406 -77.0011 273° West 360 414 28,200 1,500 Climbing New York Center
09:55PM 39.9461 -77.1317 273° West 365 420 30,000 2,640 Climbing New York Center
09:56PM 39.9528 -77.3531 272° West 341 392 35,300 2,700 Climbing Cleveland Center
09:57PM 39.9561 -77.4708 272° West 330 380 37,300 2,460 Climbing Cleveland Center
09:58PM 39.9600 -77.5806 273° West 313 360 40,400 2,160 Climbing Cleveland Center
09:59PM 39.9617 -77.6831 271° West 293 337 41,700 1,020 Climbing Cleveland Center
10:00PM 39.9658 -77.7831 273° West 282 325 42,500 600 Climbing Cleveland Center
10:01PM 39.9694 -77.8889 273° West 287 330 43,000 240 Climbing Cleveland Center
10:03PM 39.9731 -78.0019 272° West 301 346 43,000  Level Cleveland Center
10:04PM 39.9758 -78.1183 272° West 313 360 43,000  Level Cleveland Center
10:05PM 39.9794 -78.2411 272° West 328 377 43,000  Level Cleveland Center
10:06PM 39.9833 -78.3725 272° West 337 388 43,000  Level Cleveland Center
10:07PM 39.9867 -78.4981 272° West 343 395 43,000  Level Cleveland Center
10:08PM 39.9897 -78.6231 272° West 344 396 43,000  Level Cleveland Center
10:09PM 39.9911 -78.7500 271° West 349 402 43,000  Level Cleveland Center
10:10PM 39.9944 -78.8781 272° West 352 405 43,000  Level Cleveland Center
10:11PM 39.9994 -79.0278 273° West 379 436 43,000  Level Cleveland Center
10:12PM 40.0003 -79.1558 271° West 364 419 43,000  Level Cleveland Center
10:13PM 40.0031 -79.2853 272° West 358 412 43,000  Level Cleveland Center
10:14PM 40.0058 -79.4161 272° West 360 414 43,000  Level Cleveland Center
10:15PM 40.0075 -79.5450 271° West 357 411 43,000  Level Cleveland Center
10:16PM 40.0094 -79.6758 271° West 359 413 43,000  Level Cleveland Center
10:17PM 40.0100 -79.8039 270° West 355 409 43,000  Level Cleveland Center
10:18PM 40.0106 -79.9364 270° West 363 418 43,000  Level Cleveland Center
10:19PM 40.0136 -80.0703 272° West 368 423 43,000  Level Cleveland Center
10:20PM 40.0144 -80.2019 271° West 364 419 43,000  Level Cleveland Center
10:21PM 40.0156 -80.3336 271° West 362 417 43,000  Level Cleveland Center
10:22PM 40.0161 -80.4922 270° West 362 417 43,000  Level Cleveland Center
10:23PM 40.0169 -80.6228 271° West 360 414 43,000  Level Cleveland Center
10:24PM 40.0183 -80.7536 271° West 361 415 43,000  Level Cleveland Center
10:25PM 40.0156 -80.8836 268° West 362 417 43,000  Level Indianapolis Center
10:26PM 40.0136 -81.0167 269° West 363 418 43,000  Level Indianapolis Center
10:27PM 40.0122 -81.1492 269° West 361 415 43,000  Level Indianapolis Center
10:28PM 40.0106 -81.2828 269° West 364 419 43,000  Level Indianapolis Center
10:29PM 40.0078 -81.4153 268° West 363 418 43,000  Level Indianapolis Center
10:30PM 40.0044 -81.5472 268° West 361 415 43,000  Level Indianapolis Center
10:31PM 40.0025 -81.6775 269° West 359 413 43,000  Level Indianapolis Center
10:32PM 39.9992 -81.7911 268° West 362 417 43,000  Level Indianapolis Center
10:33PM 39.9967 -81.9486 269° West 362 417 43,000  Level Indianapolis Center
10:34PM 39.9928 -82.0808 268° West 365 420 43,000  Level Indianapolis Center
10:35PM 39.9903 -82.2142 269° West 368 423 43,000  Level Indianapolis Center
10:36PM 39.9864 -82.3481 268° West 370 426 43,000  Level Indianapolis Center
10:37PM 39.9828 -82.4806 268° West 368 423 43,000  Level Indianapolis Center
10:38PM 39.9794 -82.6144 268° West 371 427 43,000  Level Indianapolis Center
10:39PM 39.9753 -82.7478 268° West 370 426 43,000  Level Indianapolis Center
10:40PM 39.9711 -82.8808 268° West 370 426 43,000  Level Indianapolis Center
10:41PM 39.9658 -83.0150 267° West 371 427 43,000  Level Indianapolis Center
10:42PM 39.9633 -83.1472 269° West 369 425 43,000  Level Indianapolis Center
10:43PM 39.9600 -83.2800 268° West 369 425 43,000  Level Indianapolis Center
10:44PM 39.9550 -83.4364 268° West 367 422 43,000  Level Indianapolis Center
10:45PM 39.9503 -83.5664 267° West 370 426 43,000  Level Indianapolis Center
10:46PM 39.9447 -83.6961 267° West 366 421 43,000  Level Indianapolis Center
10:47PM 39.9400 -83.8275 267° West 366 421 43,000  Level Indianapolis Center
10:48PM 39.9347 -83.9600 267° West 368 423 43,000  Level Indianapolis Center
10:49PM 39.9294 -84.0928 267° West 369 425 43,000  Level Indianapolis Center
10:50PM 39.9236 -84.2256 267° West 368 423 43,000  Level Indianapolis Center
10:51PM 39.9183 -84.3583 267° West 370 426 43,000  Level Indianapolis Center
10:52PM 39.9119 -84.4911 266° West 370 426 43,000  Level Indianapolis Center
10:53PM 39.9053 -84.6506 267° West 369 425 43,000  Level Indianapolis Center
10:54PM 39.9000 -84.7853 267° West 372 428 43,000  Level Indianapolis Center
10:55PM 39.8942 -84.9042 266° West 372 428 43,000  Level Indianapolis Center
10:56PM 39.8853 -85.0364 265° West 370 426 43,000  Level Indianapolis Center
10:57PM 39.8706 -85.1675 262° West 368 423 43,000  Level Indianapolis Center
10:58PM 39.8553 -85.2975 261° West 366 421 43,000  Level Indianapolis Center
10:59PM 39.8378 -85.4536 262° West 364 419 43,000  Level Indianapolis Center
11:00PM 39.8228 -85.5839 262° West 365 420 43,000  Level Indianapolis Center
11:01PM 39.8064 -85.7142 261° West 367 422 43,000  Level Indianapolis Center
11:02PM 39.7914 -85.8444 262° West 366 421 43,000  Level Indianapolis Center
11:03PM 39.7756 -85.9761 261° West 370 426 43,000  Level Indianapolis Center
11:04PM 39.7597 -86.1067 261° West 368 423 43,000  Level Indianapolis Center
11:05PM 39.7403 -86.2492 260° West 368 423 43,000  Level Indianapolis Center
11:06PM 39.7244 -86.3808 261° West 368 423 43,000  Level Indianapolis Center
11:07PM 39.7097 -86.5111 262° West 368 423 43,000  Level Indianapolis Center
11:08PM 39.6922 -86.6411 260° West 368 423 43,000  Level Indianapolis Center
11:09PM 39.6750 -86.7733 260° West 371 427 43,000  Level Indianapolis Center
11:11PM 39.6583 -86.9047 261° West 372 428 43,000  Level Indianapolis Center
11:12PM 39.6406 -87.0361 260° West 372 428 43,000  Level Indianapolis Center
11:13PM 39.6231 -87.1678 260° West 372 428 43,000  Level Indianapolis Center
11:14PM 39.6061 -87.3008 261° West 376 433 43,000  Level Indianapolis Center
11:15PM 39.5886 -87.4328 260° West 374 430 43,000  Level Indianapolis Center
11:16PM 39.5714 -87.5647 260° West 373 429 43,000  Level Indianapolis Center
11:17PM 39.5528 -87.6956 260° West 372 428 43,000  Level Indianapolis Center
11:18PM 39.5342 -87.8286 260° West 375 432 43,000  Level Indianapolis Center
11:19PM 39.5164 -87.9589 260° West 371 427 43,000  Level Indianapolis Center
11:20PM 39.4944 -88.1156 260° West 370 426 43,000  Level Indianapolis Center
11:21PM 39.4769 -88.2361 259° West 371 427 43,000  Level Kansas City Center
11:22PM 39.4589 -88.3675 260° West 370 426 43,000  Level Kansas City Center
11:23PM 39.4408 -88.4981 260° West 369 425 43,000  Level Kansas City Center
11:24PM 39.4231 -88.6231 260° West 378 435 43,000  Level Kansas City Center
11:25PM 39.4011 -88.7711 259° West 376 433 43,000  Level Kansas City Center
11:26PM 39.3792 -88.9017 258° West 375 432 43,000  Level Kansas City Center
11:27PM 39.3631 -89.0364 261° West 379 436 43,000  Level Kansas City Center
11:28PM 39.3431 -89.1675 259° West 377 434 43,000  Level Kansas City Center
11:29PM 39.3228 -89.3000 259° West 377 434 43,000  Level Kansas City Center
11:30PM 39.3028 -89.4319 259° West 377 434 43,000  Level Kansas City Center
11:31PM 39.2825 -89.5622 259° West 373 429 43,000  Level Kansas City Center
11:32PM 39.2625 -89.6922 259° West 373 429 43,000  Level Kansas City Center
11:33PM 39.2419 -89.8239 259° West 374 430 43,000  Level Kansas City Center
11:34PM 39.2181 -89.9803 259° West 373 429 43,000  Level Kansas City Center
11:35PM 39.1975 -90.1106 259° West 373 429 43,000  Level Kansas City Center
11:36PM 39.1758 -90.2406 258° West 373 429 43,000  Level Kansas City Center
11:37PM 39.1553 -90.3703 258° West 373 429 43,000  Level Kansas City Center
11:38PM 39.1344 -90.4997 258° West 372 428 43,000  Level Kansas City Center
11:39PM 39.1131 -90.6289 258° West 373 429 43,000  Level Kansas City Center
11:40PM 39.0931 -90.7575 259° West 370 426 43,000  Level Kansas City Center
11:41PM 39.0717 -90.8872 258° West 372 428 43,000  Level Kansas City Center
11:42PM 39.0494 -91.0175 258° West 375 432 43,000  Level Kansas City Center
11:43PM 39.0281 -91.1486 258° West 376 433 43,000  Level Kansas City Center
11:44PM 39.0053 -91.2781 257° West 375 432 43,000  Level Kansas City Center
11:45PM 38.9833 -91.4094 258° West 376 433 43,000  Level Kansas City Center
11:46PM 38.9608 -91.5400 258° West 376 433 43,000  Level Kansas City Center
11:47PM 38.9383 -91.6697 257° West 374 430 43,000  Level Kansas City Center
11:48PM 38.9111 -91.8225 257° West 374 430 43,000  Level Kansas City Center
11:49PM 38.8889 -91.9533 258° West 374 430 43,000  Level Kansas City Center
11:50PM 38.8653 -92.0842 257° West 375 432 43,000  Level Kansas City Center
11:51PM 38.8422 -92.2161 257° West 377 434 43,000  Level Kansas City Center
11:52PM 38.8192 -92.3433 257° West 373 429 43,000  Level Kansas City Center
11:53PM 38.7942 -92.4742 256° West 374 430 43,000  Level Kansas City Center
11:54PM 38.7697 -92.6075 257° West 379 436 43,000  Level Kansas City Center
11:55PM 38.7461 -92.7406 257° West 383 441 43,000  Level Kansas City Center
11:56PM 38.7211 -92.8739 257° West 385 443 43,000  Level Kansas City Center
11:57PM 38.6967 -93.0078 257° West 385 443 43,000  Level Kansas City Center
11:58PM 38.6722 -93.1411 257° West 385 443 43,000  Level Kansas City Center
11:59PM 38.6469 -93.2761 257° West 388 447 43,000  Level Kansas City Center
12:00AM 38.6211 -93.4119 256° West 391 450 43,000  Level Kansas City Center
12:01AM 38.5953 -93.5472 256° West 392 451 43,000  Level Kansas City Center
12:02AM 38.5694 -93.6853 257° West 396 456 43,000  Level Kansas City Center
12:03AM 38.5400 -93.8258 255° West 399 459 43,000  Level Kansas City Center
12:04AM 38.5103 -93.9803 256° West 402 463 43,000  Level Kansas City Center
12:05AM 38.4844 -94.1122 256° West 399 459 43,000  Level Kansas City Center
12:06AM 38.4594 -94.2425 256° West 396 456 43,000  Level Kansas City Center
12:07AM 38.4283 -94.3961 256° West 398 458 43,000  Level Kansas City Center
12:08AM 38.4022 -94.5286 256° West 401 461 43,000  Level Kansas City Center
12:09AM 38.3758 -94.6572 255° West 395 455 43,000  Level Kansas City Center
12:10AM 38.3494 -94.7906 256° West 397 457 43,000  Level Kansas City Center
12:11AM 38.3183 -94.9422 255° West 399 459 43,000 -120 Level Kansas City Center
12:12AM 38.2928 -95.0725 256° West 397 457 42,800 -840 Descending Kansas City Center
12:13AM 38.2664 -95.1981 255° West 392 451 41,400 -2,040 Descending Kansas City Center
12:14AM 38.2364 -95.3444 255° West 387 445 38,700 -2,280 Descending Kansas City Center
12:15AM 38.2119 -95.4658 256° West 378 435 36,800 -1,980 Descending Kansas City Center
12:16AM 38.1872 -95.5825 255° West 364 419 34,800 -1,980 Descending Kansas City Center
12:17AM 38.1636 -95.6964 255° West 349 402 32,900 -2,100 Descending Kansas City Center
12:18AM 38.1336 -95.8350 255° West 361 415 30,600 -2,160 Descending Kansas City Center
12:19AM 38.1075 -95.9569 255° West 373 429 28,700 -1,980 Descending Kansas City Center
12:20AM 38.0806 -96.0808 255° West 380 437 26,800 -1,920 Descending Kansas City Center
12:21AM 38.0567 -96.1953 255° West 361 415 24,900 -1,920 Descending Kansas City Center
12:22AM 38.0297 -96.3167 254° West 358 412 22,900 -1,980 Descending Kansas City Center
12:23AM 38.0028 -96.4381 254° West 358 412 20,900 -2,040 Descending Kansas City Center
12:24AM 37.9767 -96.5572 254° West 353 406 18,900 -2,280 Descending Kansas City Center
12:24AM 37.9653 -96.6044 253° West 350 403 18,100 -2,280 Descending Kansas City Center
12:25AM 37.9550 -96.6489 254° West 347 399 17,500 -1,320 Descending Kansas City Center
12:25AM 37.9508 -96.6739 258° West 346 398 17,100 -2,040 Descending Kansas City Center
12:26AM 37.9297 -96.7697 254° West 328 377 15,500 -2,040 Descending Kansas City Center
12:26AM 37.9267 -96.7842 255° West 329 379 15,100 -2,040 Descending Kansas City Center
12:27AM 37.9047 -96.8747 253° West 313 360 13,500 -2,280 Descending Kansas City Center
12:27AM 37.8981 -96.9142 258° West 313 360 12,800 -1,680 Descending Kansas City Center
12:28AM 37.8831 -96.9711 252° West 275 316 11,800 -1,740 Descending Kansas City Center
12:28AM 37.8775 -97.0014 257° West 270 311 11,100 -1,860 Descending Kansas City Center
12:29AM 37.8658 -97.0508 253° West 244 281 10,100 -1,860 Descending Kansas City Center
12:29AM 37.8581 -97.0853 254° West 252 290 9,200 -1,980 Descending Kansas City Center
12:30AM 37.8469 -97.1333 254° West 246 283 8,200 -1,140 Descending Kansas City Center
12:30AM 37.8394 -97.1700 255° West 251 289 8,100 -120 Descending Kansas City Center
12:31AM 37.8239 -97.2192 248° West 259 298 8,100 -120 Level Kansas City Center
12:31AM 37.7917 -97.2331 199° South 288 331 8,000  Descending Kansas City Center
12:32AM 37.7519 -97.2569 205° Southwest 285 328 8,100  Climbing Kansas City Center
12:32AM 37.7186 -97.2694 197° South 283 326 8,000  Descending Kansas City Center
12:33AM 37.6778 -97.2925 204° Southwest 283 326 8,100 -420 Climbing Kansas City Center
12:33AM 37.6444 -97.3033 194° South 282 325 7,600 -1,440 Descending Kansas City Center
12:34AM 37.6111 -97.3214 203° Southwest 271 312 6,800 -1,740 Descending Kansas City Center
12:34AM 37.5747 -97.3367 198° South 271 312 5,900 -1,560 Descending Kansas City Center
12:35AM 37.5489 -97.3522 206° Southwest 227 261 5,200 -1,620 Descending Kansas City Center
12:35AM 37.5150 -97.3650 197° South 254 292 4,300 -1,680 Descending Kansas City Center
12:36AM 37.4908 -97.3797 206° Southwest 213 245 3,500 -1,200 Descending Kansas City Center
12:36AM 37.4772 -97.4081 239° Southwest 228 262 3,100 -540 Descending Kansas City Center
12:37AM 37.4756 -97.4400 266° West 173 199 3,000  Descending Kansas City Center
12:37AM 37.4814 -97.4642 287° West 203 234 3,100 60 Climbing Kansas City Center
12:38AM 37.5019 -97.4728 342° North 152 175 3,100 -120 Level Kansas City Center
12:38AM 37.5239 -97.4767 352° North 171 197 3,000  Descending Kansas City Center
12:39AM 37.5461 -97.4714 11° North 164 189 3,100  Climbing Kansas City Center
12:39AM 37.5658 -97.4594 26° Northeast 162 186 3,000 -420 Descending Kansas City Center
12:40AM 37.5844 -97.4550 11° North 142 163 2,700 -720 Descending Kansas City Center
12:40AM 37.6000 -97.4414 35° Northeast 149 171 2,300 -600 Descending Kansas City Center
12:41AM 37.6122 -97.4400 North 104 120 2,100 -600 Descending Kansas City Center
12:41AM 37.6267 -97.4286 32° Northeast 127 146 1,700 -360 Descending Kansas City Center
12:42AM 37.6547 -97.4156 20° North 123 142 1,600 -120 Descending Kansas City Center